sensor_id;sensor_type;location;lat;lon;timestamp;P1;durP1;ratioP1;P2;durP2;ratioP2
7398;SDS011;3740;50.700;7.184;2022-08-27T00:01:32;5.20;;;4.80;;
7398;SDS011;3740;50.700;7.184;2022-08-27T00:03:58;5.80;;;5.25;;
7398;SDS011;3740;50.700;7.184;2022-08-27T00:06:24;5.65;;;4.85;;
7398;SDS011;3740;50.700;7.184;2022-08-27T00:08:51;7.30;;;5.35;;
7398;SDS011;3740;50.700;7.184;2022-08-27T00:11:18;6.55;;;5.43;;
7398;SDS011;3740;50.700;7.184;2022-08-27T00:13:45;6.40;;;5.18;;
7398;SDS011;3740;50.700;7.184;2022-08-27T00:16:12;7.18;;;5.80;;
7398;SDS011;3740;50.700;7.184;2022-08-27T00:18:41;6.88;;;6.05;;
7398;SDS011;3740;50.700;7.184;2022-08-27T00:21:08;5.60;;;4.53;;
7398;SDS011;3740;50.700;7.184;2022-08-27T00:23:34;7.30;;;6.60;;
7398;SDS011;3740;50.700;7.184;2022-08-27T00:26:00;7.75;;;5.97;;
7398;SDS011;3740;50.700;7.184;2022-08-27T00:28:26;7.43;;;6.72;;
7398;SDS011;3740;50.700;7.184;2022-08-27T00:30:53;11.48;;;8.75;;
7398;SDS011;3740;50.700;7.184;2022-08-27T00:33:22;10.45;;;9.45;;
7398;SDS011;3740;50.700;7.184;2022-08-27T00:35:48;7.95;;;7.25;;
7398;SDS011;3740;50.700;7.184;2022-08-27T00:38:14;10.45;;;9.55;;
7398;SDS011;3740;50.700;7.184;2022-08-27T00:40:40;9.10;;;8.30;;
7398;SDS011;3740;50.700;7.184;2022-08-27T00:43:06;9.32;;;8.63;;
7398;SDS011;3740;50.700;7.184;2022-08-27T00:45:37;12.00;;;10.77;;
7398;SDS011;3740;50.700;7.184;2022-08-27T00:48:06;9.15;;;8.35;;
7398;SDS011;3740;50.700;7.184;2022-08-27T00:50:39;10.35;;;9.40;;
7398;SDS011;3740;50.700;7.184;2022-08-27T00:53:09;12.02;;;10.82;;
7398;SDS011;3740;50.700;7.184;2022-08-27T00:55:42;11.18;;;10.27;;
7398;SDS011;3740;50.700;7.184;2022-08-27T00:58:18;10.27;;;9.32;;
7398;SDS011;3740;50.700;7.184;2022-08-27T01:00:53;8.60;;;7.90;;
7398;SDS011;3740;50.700;7.184;2022-08-27T01:03:19;9.07;;;8.27;;
7398;SDS011;3740;50.700;7.184;2022-08-27T01:05:46;9.10;;;8.40;;
7398;SDS011;3740;50.700;7.184;2022-08-27T01:08:14;9.95;;;9.07;;
7398;SDS011;3740;50.700;7.184;2022-08-27T01:10:44;10.05;;;9.15;;
7398;SDS011;3740;50.700;7.184;2022-08-27T01:13:11;12.07;;;10.95;;
7398;SDS011;3740;50.700;7.184;2022-08-27T01:15:39;9.30;;;8.45;;
7398;SDS011;3740;50.700;7.184;2022-08-27T01:18:06;8.90;;;8.20;;
7398;SDS011;3740;50.700;7.184;2022-08-27T01:20:44;9.05;;;8.35;;
7398;SDS011;3740;50.700;7.184;2022-08-27T01:26:03;10.35;;;9.35;;
7398;SDS011;3740;50.700;7.184;2022-08-27T01:28:31;10.02;;;9.25;;
7398;SDS011;3740;50.700;7.184;2022-08-27T01:30:58;11.32;;;10.43;;
7398;SDS011;3740;50.700;7.184;2022-08-27T01:33:23;11.20;;;10.38;;
7398;SDS011;3740;50.700;7.184;2022-08-27T01:35:49;11.07;;;10.10;;
7398;SDS011;3740;50.700;7.184;2022-08-27T01:38:16;11.60;;;10.70;;
7398;SDS011;3740;50.700;7.184;2022-08-27T01:40:44;9.68;;;8.85;;
7398;SDS011;3740;50.700;7.184;2022-08-27T01:43:11;9.60;;;8.85;;
7398;SDS011;3740;50.700;7.184;2022-08-27T01:45:42;11.00;;;10.02;;
7398;SDS011;3740;50.700;7.184;2022-08-27T01:48:10;12.13;;;11.23;;
7398;SDS011;3740;50.700;7.184;2022-08-27T01:50:37;14.75;;;13.63;;
7398;SDS011;3740;50.700;7.184;2022-08-27T01:53:06;12.15;;;11.20;;
7398;SDS011;3740;50.700;7.184;2022-08-27T01:55:35;14.52;;;13.23;;
7398;SDS011;3740;50.700;7.184;2022-08-27T01:58:02;13.93;;;12.73;;
7398;SDS011;3740;50.700;7.184;2022-08-27T02:00:29;12.57;;;11.57;;
7398;SDS011;3740;50.700;7.184;2022-08-27T02:03:00;10.02;;;9.32;;
7398;SDS011;3740;50.700;7.184;2022-08-27T02:05:27;11.27;;;10.40;;
7398;SDS011;3740;50.700;7.184;2022-08-27T02:07:54;11.98;;;11.07;;
7398;SDS011;3740;50.700;7.184;2022-08-27T02:10:22;13.10;;;12.10;;
7398;SDS011;3740;50.700;7.184;2022-08-27T02:12:49;14.15;;;12.95;;
7398;SDS011;3740;50.700;7.184;2022-08-27T02:15:16;13.65;;;12.52;;
7398;SDS011;3740;50.700;7.184;2022-08-27T02:17:43;14.20;;;13.10;;
7398;SDS011;3740;50.700;7.184;2022-08-27T02:20:10;12.70;;;11.65;;
7398;SDS011;3740;50.700;7.184;2022-08-27T02:22:36;12.27;;;11.18;;
7398;SDS011;3740;50.700;7.184;2022-08-27T02:25:02;12.43;;;11.32;;
7398;SDS011;3740;50.700;7.184;2022-08-27T02:27:30;13.90;;;12.80;;
7398;SDS011;3740;50.700;7.184;2022-08-27T02:29:56;14.20;;;13.05;;
7398;SDS011;3740;50.700;7.184;2022-08-27T02:32:22;16.60;;;15.20;;
7398;SDS011;3740;50.700;7.184;2022-08-27T02:34:49;16.45;;;15.18;;
7398;SDS011;3740;50.700;7.184;2022-08-27T02:37:14;17.83;;;16.33;;
7398;SDS011;3740;50.700;7.184;2022-08-27T02:39:40;19.48;;;17.83;;
7398;SDS011;3740;50.700;7.184;2022-08-27T02:42:07;19.40;;;17.80;;
7398;SDS011;3740;50.700;7.184;2022-08-27T02:44:33;17.27;;;15.88;;
7398;SDS011;3740;50.700;7.184;2022-08-27T02:47:00;16.25;;;14.85;;
7398;SDS011;3740;50.700;7.184;2022-08-27T02:49:27;16.40;;;15.20;;
7398;SDS011;3740;50.700;7.184;2022-08-27T02:51:54;18.73;;;17.13;;
7398;SDS011;3740;50.700;7.184;2022-08-27T02:54:21;16.55;;;15.10;;
7398;SDS011;3740;50.700;7.184;2022-08-27T02:56:48;19.17;;;17.48;;
7398;SDS011;3740;50.700;7.184;2022-08-27T02:59:14;19.05;;;17.40;;
7398;SDS011;3740;50.700;7.184;2022-08-27T03:01:41;16.70;;;15.07;;
7398;SDS011;3740;50.700;7.184;2022-08-27T03:04:07;17.65;;;16.13;;
7398;SDS011;3740;50.700;7.184;2022-08-27T03:06:33;16.00;;;14.60;;
7398;SDS011;3740;50.700;7.184;2022-08-27T03:08:59;17.83;;;16.33;;
7398;SDS011;3740;50.700;7.184;2022-08-27T03:11:25;18.10;;;16.58;;
7398;SDS011;3740;50.700;7.184;2022-08-27T03:13:50;19.10;;;17.50;;
7398;SDS011;3740;50.700;7.184;2022-08-27T03:16:16;23.55;;;21.35;;
7398;SDS011;3740;50.700;7.184;2022-08-27T03:18:42;22.15;;;20.15;;
7398;SDS011;3740;50.700;7.184;2022-08-27T03:21:08;22.40;;;20.45;;
7398;SDS011;3740;50.700;7.184;2022-08-27T03:23:41;24.42;;;22.15;;
7398;SDS011;3740;50.700;7.184;2022-08-27T03:26:08;27.55;;;25.05;;
7398;SDS011;3740;50.700;7.184;2022-08-27T03:28:34;26.00;;;23.58;;
7398;SDS011;3740;50.700;7.184;2022-08-27T03:31:02;25.35;;;23.05;;
7398;SDS011;3740;50.700;7.184;2022-08-27T03:33:35;27.95;;;25.45;;
7398;SDS011;3740;50.700;7.184;2022-08-27T03:36:03;25.75;;;23.38;;
7398;SDS011;3740;50.700;7.184;2022-08-27T03:38:30;25.30;;;22.95;;
7398;SDS011;3740;50.700;7.184;2022-08-27T03:40:56;25.33;;;22.85;;
7398;SDS011;3740;50.700;7.184;2022-08-27T03:43:22;24.33;;;22.13;;
7398;SDS011;3740;50.700;7.184;2022-08-27T03:45:49;21.80;;;19.80;;
7398;SDS011;3740;50.700;7.184;2022-08-27T03:48:15;21.40;;;19.55;;
7398;SDS011;3740;50.700;7.184;2022-08-27T03:50:44;27.08;;;24.55;;
7398;SDS011;3740;50.700;7.184;2022-08-27T03:53:11;29.52;;;26.95;;
7398;SDS011;3740;50.700;7.184;2022-08-27T03:55:38;28.27;;;25.63;;
7398;SDS011;3740;50.700;7.184;2022-08-27T03:58:05;31.17;;;28.45;;
7398;SDS011;3740;50.700;7.184;2022-08-27T04:00:31;34.30;;;31.10;;
7398;SDS011;3740;50.700;7.184;2022-08-27T04:02:57;34.63;;;31.42;;
7398;SDS011;3740;50.700;7.184;2022-08-27T04:05:23;30.38;;;27.58;;
7398;SDS011;3740;50.700;7.184;2022-08-27T04:07:49;32.63;;;29.63;;
7398;SDS011;3740;50.700;7.184;2022-08-27T04:10:15;27.08;;;24.52;;
7398;SDS011;3740;50.700;7.184;2022-08-27T04:12:42;25.15;;;22.85;;
7398;SDS011;3740;50.700;7.184;2022-08-27T04:15:09;24.70;;;22.45;;
7398;SDS011;3740;50.700;7.184;2022-08-27T04:17:36;26.80;;;24.40;;
7398;SDS011;3740;50.700;7.184;2022-08-27T04:20:02;26.63;;;24.23;;
7398;SDS011;3740;50.700;7.184;2022-08-27T04:22:30;28.33;;;25.70;;
7398;SDS011;3740;50.700;7.184;2022-08-27T04:24:56;27.83;;;25.23;;
7398;SDS011;3740;50.700;7.184;2022-08-27T04:27:21;31.95;;;28.92;;
7398;SDS011;3740;50.700;7.184;2022-08-27T04:29:50;30.05;;;27.13;;
7398;SDS011;3740;50.700;7.184;2022-08-27T04:32:19;27.25;;;24.73;;
7398;SDS011;3740;50.700;7.184;2022-08-27T04:34:44;26.45;;;24.15;;
7398;SDS011;3740;50.700;7.184;2022-08-27T04:37:10;27.25;;;24.75;;
7398;SDS011;3740;50.700;7.184;2022-08-27T04:39:35;25.40;;;23.10;;
7398;SDS011;3740;50.700;7.184;2022-08-27T04:42:02;24.10;;;21.77;;
7398;SDS011;3740;50.700;7.184;2022-08-27T04:44:30;24.85;;;22.55;;
7398;SDS011;3740;50.700;7.184;2022-08-27T04:46:58;23.90;;;21.80;;
7398;SDS011;3740;50.700;7.184;2022-08-27T04:49:25;23.98;;;21.75;;
7398;SDS011;3740;50.700;7.184;2022-08-27T04:51:52;24.15;;;21.83;;
7398;SDS011;3740;50.700;7.184;2022-08-27T04:54:19;23.75;;;21.55;;
7398;SDS011;3740;50.700;7.184;2022-08-27T04:56:44;21.38;;;19.30;;
7398;SDS011;3740;50.700;7.184;2022-08-27T04:59:10;19.45;;;17.65;;
7398;SDS011;3740;50.700;7.184;2022-08-27T05:01:37;20.58;;;18.77;;
7398;SDS011;3740;50.700;7.184;2022-08-27T05:04:05;19.65;;;17.83;;
7398;SDS011;3740;50.700;7.184;2022-08-27T05:06:31;18.65;;;17.05;;
7398;SDS011;3740;50.700;7.184;2022-08-27T05:08:57;19.10;;;17.30;;
7398;SDS011;3740;50.700;7.184;2022-08-27T05:11:25;20.67;;;18.58;;
7398;SDS011;3740;50.700;7.184;2022-08-27T05:13:56;21.40;;;19.30;;
7398;SDS011;3740;50.700;7.184;2022-08-27T05:16:22;19.25;;;17.45;;
7398;SDS011;3740;50.700;7.184;2022-08-27T05:18:49;21.67;;;19.52;;
7398;SDS011;3740;50.700;7.184;2022-08-27T05:21:17;20.40;;;18.50;;
7398;SDS011;3740;50.700;7.184;2022-08-27T05:23:46;19.52;;;17.48;;
7398;SDS011;3740;50.700;7.184;2022-08-27T05:26:12;19.48;;;17.50;;
7398;SDS011;3740;50.700;7.184;2022-08-27T05:28:39;18.40;;;16.63;;
7398;SDS011;3740;50.700;7.184;2022-08-27T05:31:06;20.30;;;18.30;;
7398;SDS011;3740;50.700;7.184;2022-08-27T05:33:34;18.75;;;16.98;;
7398;SDS011;3740;50.700;7.184;2022-08-27T05:36:02;19.67;;;17.83;;
7398;SDS011;3740;50.700;7.184;2022-08-27T05:38:30;19.83;;;17.92;;
7398;SDS011;3740;50.700;7.184;2022-08-27T05:41:06;23.48;;;21.02;;
7398;SDS011;3740;50.700;7.184;2022-08-27T05:43:35;24.02;;;21.75;;
7398;SDS011;3740;50.700;7.184;2022-08-27T05:46:07;23.38;;;21.17;;
7398;SDS011;3740;50.700;7.184;2022-08-27T05:48:36;21.02;;;18.95;;
7398;SDS011;3740;50.700;7.184;2022-08-27T05:51:10;20.55;;;18.65;;
7398;SDS011;3740;50.700;7.184;2022-08-27T05:53:38;24.25;;;21.83;;
7398;SDS011;3740;50.700;7.184;2022-08-27T05:56:12;20.50;;;18.60;;
7398;SDS011;3740;50.700;7.184;2022-08-27T05:58:38;20.58;;;18.60;;
7398;SDS011;3740;50.700;7.184;2022-08-27T06:01:22;22.00;;;19.80;;
7398;SDS011;3740;50.700;7.184;2022-08-27T06:03:48;23.58;;;21.25;;
7398;SDS011;3740;50.700;7.184;2022-08-27T06:06:16;22.15;;;20.15;;
7398;SDS011;3740;50.700;7.184;2022-08-27T06:08:43;22.25;;;19.98;;
7398;SDS011;3740;50.700;7.184;2022-08-27T06:11:08;20.58;;;18.63;;
7398;SDS011;3740;50.700;7.184;2022-08-27T06:13:35;20.10;;;18.20;;
7398;SDS011;3740;50.700;7.184;2022-08-27T06:16:06;22.45;;;20.15;;
7398;SDS011;3740;50.700;7.184;2022-08-27T06:18:35;20.90;;;18.75;;
7398;SDS011;3740;50.700;7.184;2022-08-27T06:21:05;19.02;;;17.23;;
7398;SDS011;3740;50.700;7.184;2022-08-27T06:23:31;22.05;;;19.95;;
7398;SDS011;3740;50.700;7.184;2022-08-27T06:26:03;22.13;;;19.90;;
7398;SDS011;3740;50.700;7.184;2022-08-27T06:28:33;22.55;;;20.35;;
7398;SDS011;3740;50.700;7.184;2022-08-27T06:31:06;22.48;;;20.27;;
7398;SDS011;3740;50.700;7.184;2022-08-27T06:33:34;22.88;;;20.63;;
7398;SDS011;3740;50.700;7.184;2022-08-27T06:36:02;23.92;;;21.38;;
7398;SDS011;3740;50.700;7.184;2022-08-27T06:38:29;23.42;;;21.02;;
7398;SDS011;3740;50.700;7.184;2022-08-27T06:40:55;23.25;;;21.02;;
7398;SDS011;3740;50.700;7.184;2022-08-27T06:43:22;21.58;;;19.48;;
7398;SDS011;3740;50.700;7.184;2022-08-27T06:45:49;23.20;;;20.70;;
7398;SDS011;3740;50.700;7.184;2022-08-27T06:48:18;22.77;;;20.55;;
7398;SDS011;3740;50.700;7.184;2022-08-27T06:50:43;22.30;;;20.23;;
7398;SDS011;3740;50.700;7.184;2022-08-27T06:53:10;21.33;;;19.23;;
7398;SDS011;3740;50.700;7.184;2022-08-27T06:55:43;21.08;;;18.95;;
7398;SDS011;3740;50.700;7.184;2022-08-27T06:58:11;22.73;;;20.42;;
7398;SDS011;3740;50.700;7.184;2022-08-27T07:00:37;20.13;;;18.20;;
7398;SDS011;3740;50.700;7.184;2022-08-27T07:03:03;20.33;;;18.25;;
7398;SDS011;3740;50.700;7.184;2022-08-27T07:05:30;23.98;;;21.50;;
7398;SDS011;3740;50.700;7.184;2022-08-27T07:07:57;19.77;;;17.90;;
7398;SDS011;3740;50.700;7.184;2022-08-27T07:10:23;19.33;;;17.10;;
7398;SDS011;3740;50.700;7.184;2022-08-27T07:12:49;18.95;;;17.08;;
7398;SDS011;3740;50.700;7.184;2022-08-27T07:15:15;20.95;;;18.92;;
7398;SDS011;3740;50.700;7.184;2022-08-27T07:17:40;19.77;;;17.77;;
7398;SDS011;3740;50.700;7.184;2022-08-27T07:20:08;17.08;;;15.57;;
7398;SDS011;3740;50.700;7.184;2022-08-27T07:22:35;19.67;;;17.80;;
7398;SDS011;3740;50.700;7.184;2022-08-27T07:25:03;16.88;;;15.48;;
7398;SDS011;3740;50.700;7.184;2022-08-27T07:27:29;17.42;;;15.82;;
7398;SDS011;3740;50.700;7.184;2022-08-27T07:29:55;17.92;;;16.23;;
7398;SDS011;3740;50.700;7.184;2022-08-27T07:32:20;16.65;;;15.07;;
7398;SDS011;3740;50.700;7.184;2022-08-27T07:34:46;16.83;;;15.23;;
7398;SDS011;3740;50.700;7.184;2022-08-27T07:37:11;18.27;;;16.60;;
7398;SDS011;3740;50.700;7.184;2022-08-27T07:39:37;17.35;;;15.80;;
7398;SDS011;3740;50.700;7.184;2022-08-27T07:42:03;16.50;;;14.75;;
7398;SDS011;3740;50.700;7.184;2022-08-27T07:44:47;16.90;;;15.30;;
7398;SDS011;3740;50.700;7.184;2022-08-27T07:47:13;16.02;;;14.60;;
7398;SDS011;3740;50.700;7.184;2022-08-27T07:49:39;17.05;;;15.60;;
7398;SDS011;3740;50.700;7.184;2022-08-27T07:52:05;17.38;;;15.73;;
7398;SDS011;3740;50.700;7.184;2022-08-27T07:54:32;14.82;;;13.52;;
7398;SDS011;3740;50.700;7.184;2022-08-27T07:56:58;16.08;;;14.48;;
7398;SDS011;3740;50.700;7.184;2022-08-27T07:59:24;13.80;;;12.63;;
7398;SDS011;3740;50.700;7.184;2022-08-27T08:01:53;13.73;;;12.43;;
7398;SDS011;3740;50.700;7.184;2022-08-27T08:04:20;16.60;;;15.10;;
7398;SDS011;3740;50.700;7.184;2022-08-27T08:06:49;17.60;;;15.57;;
7398;SDS011;3740;50.700;7.184;2022-08-27T08:09:16;18.65;;;17.05;;
7398;SDS011;3740;50.700;7.184;2022-08-27T08:11:42;16.88;;;15.27;;
7398;SDS011;3740;50.700;7.184;2022-08-27T08:14:07;15.27;;;13.98;;
7398;SDS011;3740;50.700;7.184;2022-08-27T08:16:36;13.60;;;12.50;;
7398;SDS011;3740;50.700;7.184;2022-08-27T08:19:02;12.48;;;11.45;;
7398;SDS011;3740;50.700;7.184;2022-08-27T08:21:28;14.57;;;13.38;;
7398;SDS011;3740;50.700;7.184;2022-08-27T08:23:53;14.23;;;13.13;;
7398;SDS011;3740;50.700;7.184;2022-08-27T08:26:19;13.02;;;12.02;;
7398;SDS011;3740;50.700;7.184;2022-08-27T08:28:45;13.50;;;12.40;;
7398;SDS011;3740;50.700;7.184;2022-08-27T08:31:11;15.65;;;14.45;;
7398;SDS011;3740;50.700;7.184;2022-08-27T08:33:37;15.18;;;14.00;;
7398;SDS011;3740;50.700;7.184;2022-08-27T08:36:04;16.38;;;14.93;;
7398;SDS011;3740;50.700;7.184;2022-08-27T08:38:32;13.07;;;12.18;;
7398;SDS011;3740;50.700;7.184;2022-08-27T08:40:58;14.82;;;13.73;;
7398;SDS011;3740;50.700;7.184;2022-08-27T08:43:33;14.63;;;13.27;;
7398;SDS011;3740;50.700;7.184;2022-08-27T08:46:17;15.88;;;14.60;;
7398;SDS011;3740;50.700;7.184;2022-08-27T08:49:48;14.82;;;13.82;;
7398;SDS011;3740;50.700;7.184;2022-08-27T08:52:51;12.68;;;11.63;;
7398;SDS011;3740;50.700;7.184;2022-08-27T08:57:36;14.65;;;13.50;;
7398;SDS011;3740;50.700;7.184;2022-08-27T09:00:10;12.25;;;11.32;;
7398;SDS011;3740;50.700;7.184;2022-08-27T09:02:48;13.32;;;12.38;;
7398;SDS011;3740;50.700;7.184;2022-08-27T09:05:18;12.93;;;11.93;;
7398;SDS011;3740;50.700;7.184;2022-08-27T09:07:51;13.85;;;12.65;;
7398;SDS011;3740;50.700;7.184;2022-08-27T09:10:47;13.75;;;12.65;;
7398;SDS011;3740;50.700;7.184;2022-08-27T09:13:20;12.25;;;11.30;;
7398;SDS011;3740;50.700;7.184;2022-08-27T09:15:50;14.90;;;13.80;;
7398;SDS011;3740;50.700;7.184;2022-08-27T09:18:19;14.57;;;13.48;;
7398;SDS011;3740;50.700;7.184;2022-08-27T09:20:45;13.90;;;12.90;;
7398;SDS011;3740;50.700;7.184;2022-08-27T09:23:33;14.52;;;13.32;;
7398;SDS011;3740;50.700;7.184;2022-08-27T09:26:00;13.00;;;11.85;;
7398;SDS011;3740;50.700;7.184;2022-08-27T09:28:27;13.63;;;12.55;;
7398;SDS011;3740;50.700;7.184;2022-08-27T09:31:13;15.57;;;14.38;;
7398;SDS011;3740;50.700;7.184;2022-08-27T09:33:41;17.13;;;15.65;;
7398;SDS011;3740;50.700;7.184;2022-08-27T09:36:09;17.83;;;16.25;;
7398;SDS011;3740;50.700;7.184;2022-08-27T09:38:51;17.02;;;15.73;;
7398;SDS011;3740;50.700;7.184;2022-08-27T09:41:23;17.73;;;16.25;;
7398;SDS011;3740;50.700;7.184;2022-08-27T09:43:59;16.50;;;15.20;;
7398;SDS011;3740;50.700;7.184;2022-08-27T09:46:27;16.98;;;15.77;;
7398;SDS011;3740;50.700;7.184;2022-08-27T09:48:53;17.30;;;16.00;;
7398;SDS011;3740;50.700;7.184;2022-08-27T09:51:33;13.52;;;12.52;;
7398;SDS011;3740;50.700;7.184;2022-08-27T09:54:00;13.88;;;12.77;;
7398;SDS011;3740;50.700;7.184;2022-08-27T09:56:32;14.05;;;12.85;;
7398;SDS011;3740;50.700;7.184;2022-08-27T10:01:32;13.52;;;12.55;;
7398;SDS011;3740;50.700;7.184;2022-08-27T10:04:04;12.15;;;11.23;;
7398;SDS011;3740;50.700;7.184;2022-08-27T10:06:33;12.60;;;11.60;;
7398;SDS011;3740;50.700;7.184;2022-08-27T10:09:16;10.88;;;9.98;;
7398;SDS011;3740;50.700;7.184;2022-08-27T10:14:53;11.68;;;10.68;;
7398;SDS011;3740;50.700;7.184;2022-08-27T10:28:42;11.27;;;10.48;;
7398;SDS011;3740;50.700;7.184;2022-08-27T10:39:48;8.43;;;7.72;;
7398;SDS011;3740;50.700;7.184;2022-08-27T10:42:47;9.48;;;8.77;;
7398;SDS011;3740;50.700;7.184;2022-08-27T10:50:54;8.88;;;8.18;;
7398;SDS011;3740;50.700;7.184;2022-08-27T10:56:43;13.05;;;12.02;;
7398;SDS011;3740;50.700;7.184;2022-08-27T10:59:18;11.50;;;10.52;;
7398;SDS011;3740;50.700;7.184;2022-08-27T11:04:58;12.80;;;11.57;;
7398;SDS011;3740;50.700;7.184;2022-08-27T11:07:31;13.98;;;12.77;;
7398;SDS011;3740;50.700;7.184;2022-08-27T11:10:05;10.93;;;10.00;;
7398;SDS011;3740;50.700;7.184;2022-08-27T11:12:38;12.90;;;11.98;;
7398;SDS011;3740;50.700;7.184;2022-08-27T11:15:08;15.40;;;14.13;;
7398;SDS011;3740;50.700;7.184;2022-08-27T11:17:35;16.48;;;15.00;;
7398;SDS011;3740;50.700;7.184;2022-08-27T11:22:50;15.07;;;13.82;;
7398;SDS011;3740;50.700;7.184;2022-08-27T11:25:26;16.25;;;14.98;;
7398;SDS011;3740;50.700;7.184;2022-08-27T11:28:41;18.20;;;16.63;;
7398;SDS011;3740;50.700;7.184;2022-08-27T11:34:39;17.15;;;15.73;;
7398;SDS011;3740;50.700;7.184;2022-08-27T11:43:01;18.13;;;16.55;;
7398;SDS011;3740;50.700;7.184;2022-08-27T11:46:05;17.75;;;16.33;;
7398;SDS011;3740;50.700;7.184;2022-08-27T11:48:33;20.30;;;18.60;;
7398;SDS011;3740;50.700;7.184;2022-08-27T11:51:06;18.33;;;16.77;;
7398;SDS011;3740;50.700;7.184;2022-08-27T11:53:37;15.90;;;14.52;;
7398;SDS011;3740;50.700;7.184;2022-08-27T11:58:40;16.90;;;15.40;;
7398;SDS011;3740;50.700;7.184;2022-08-27T12:01:14;15.07;;;13.68;;
7398;SDS011;3740;50.700;7.184;2022-08-27T12:03:58;14.95;;;13.65;;
7398;SDS011;3740;50.700;7.184;2022-08-27T12:06:51;16.30;;;14.60;;
7398;SDS011;3740;50.700;7.184;2022-08-27T12:09:25;12.80;;;11.75;;
7398;SDS011;3740;50.700;7.184;2022-08-27T12:14:52;15.23;;;14.02;;
7398;SDS011;3740;50.700;7.184;2022-08-27T12:17:43;12.02;;;10.90;;
7398;SDS011;3740;50.700;7.184;2022-08-27T12:25:54;11.45;;;10.45;;
7398;SDS011;3740;50.700;7.184;2022-08-27T12:28:22;11.55;;;10.43;;
7398;SDS011;3740;50.700;7.184;2022-08-27T12:30:49;11.35;;;10.35;;
7398;SDS011;3740;50.700;7.184;2022-08-27T12:33:38;10.77;;;9.88;;
7398;SDS011;3740;50.700;7.184;2022-08-27T12:36:12;12.52;;;11.32;;
7398;SDS011;3740;50.700;7.184;2022-08-27T12:38:45;13.38;;;12.07;;
7398;SDS011;3740;50.700;7.184;2022-08-27T12:41:27;13.98;;;12.60;;
7398;SDS011;3740;50.700;7.184;2022-08-27T12:44:39;12.15;;;11.00;;
7398;SDS011;3740;50.700;7.184;2022-08-27T12:49:27;11.30;;;10.20;;
7398;SDS011;3740;50.700;7.184;2022-08-27T12:52:02;9.20;;;8.40;;
7398;SDS011;3740;50.700;7.184;2022-08-27T13:05:18;7.80;;;7.05;;
7398;SDS011;3740;50.700;7.184;2022-08-27T13:07:46;8.30;;;7.47;;
7398;SDS011;3740;50.700;7.184;2022-08-27T13:10:19;7.65;;;6.95;;
7398;SDS011;3740;50.700;7.184;2022-08-27T13:12:58;9.73;;;8.73;;
7398;SDS011;3740;50.700;7.184;2022-08-27T13:15:32;9.55;;;8.73;;
7398;SDS011;3740;50.700;7.184;2022-08-27T13:17:59;11.93;;;8.68;;
7398;SDS011;3740;50.700;7.184;2022-08-27T13:20:27;10.07;;;8.00;;
7398;SDS011;3740;50.700;7.184;2022-08-27T13:22:53;7.40;;;6.70;;
7398;SDS011;3740;50.700;7.184;2022-08-27T13:27:54;8.27;;;7.47;;
7398;SDS011;3740;50.700;7.184;2022-08-27T13:30:23;10.10;;;7.80;;
7398;SDS011;3740;50.700;7.184;2022-08-27T13:32:51;8.10;;;6.70;;
7398;SDS011;3740;50.700;7.184;2022-08-27T13:35:18;9.95;;;8.95;;
7398;SDS011;3740;50.700;7.184;2022-08-27T13:37:47;8.68;;;7.78;;
7398;SDS011;3740;50.700;7.184;2022-08-27T13:40:31;9.35;;;7.57;;
7398;SDS011;3740;50.700;7.184;2022-08-27T13:43:03;8.27;;;6.95;;
7398;SDS011;3740;50.700;7.184;2022-08-27T13:45:31;8.98;;;7.93;;
7398;SDS011;3740;50.700;7.184;2022-08-27T13:47:58;7.13;;;6.47;;
7398;SDS011;3740;50.700;7.184;2022-08-27T13:50:26;7.07;;;6.38;;
7398;SDS011;3740;50.700;7.184;2022-08-27T13:53:00;7.80;;;7.00;;
7398;SDS011;3740;50.700;7.184;2022-08-27T13:55:50;6.80;;;6.10;;
7398;SDS011;3740;50.700;7.184;2022-08-27T13:58:22;7.10;;;6.50;;
7398;SDS011;3740;50.700;7.184;2022-08-27T14:00:53;8.88;;;6.80;;
7398;SDS011;3740;50.700;7.184;2022-08-27T14:03:32;10.48;;;8.30;;
7398;SDS011;3740;50.700;7.184;2022-08-27T14:05:59;8.00;;;7.10;;
7398;SDS011;3740;50.700;7.184;2022-08-27T14:08:33;10.13;;;8.45;;
7398;SDS011;3740;50.700;7.184;2022-08-27T14:11:04;8.43;;;7.57;;
7398;SDS011;3740;50.700;7.184;2022-08-27T14:13:43;8.45;;;7.32;;
7398;SDS011;3740;50.700;7.184;2022-08-27T14:16:21;9.07;;;8.27;;
7398;SDS011;3740;50.700;7.184;2022-08-27T14:18:50;9.30;;;8.18;;
7398;SDS011;3740;50.700;7.184;2022-08-27T14:21:18;10.20;;;9.15;;
7398;SDS011;3740;50.700;7.184;2022-08-27T14:23:45;10.55;;;8.80;;
7398;SDS011;3740;50.700;7.184;2022-08-27T14:26:11;7.60;;;6.90;;
7398;SDS011;3740;50.700;7.184;2022-08-27T14:28:37;9.35;;;8.45;;
7398;SDS011;3740;50.700;7.184;2022-08-27T14:31:03;8.05;;;7.25;;
7398;SDS011;3740;50.700;7.184;2022-08-27T14:33:29;9.85;;;8.32;;
7398;SDS011;3740;50.700;7.184;2022-08-27T14:35:55;7.40;;;6.70;;
7398;SDS011;3740;50.700;7.184;2022-08-27T14:38:21;9.68;;;8.48;;
7398;SDS011;3740;50.700;7.184;2022-08-27T14:40:49;9.05;;;7.75;;
7398;SDS011;3740;50.700;7.184;2022-08-27T14:43:16;8.48;;;7.70;;
7398;SDS011;3740;50.700;7.184;2022-08-27T14:45:42;9.23;;;8.25;;
7398;SDS011;3740;50.700;7.184;2022-08-27T14:48:11;7.85;;;7.15;;
7398;SDS011;3740;50.700;7.184;2022-08-27T14:50:42;10.80;;;9.80;;
7398;SDS011;3740;50.700;7.184;2022-08-27T14:53:08;8.73;;;7.88;;
7398;SDS011;3740;50.700;7.184;2022-08-27T14:55:34;9.95;;;7.90;;
7398;SDS011;3740;50.700;7.184;2022-08-27T14:58:00;9.98;;;9.07;;
7398;SDS011;3740;50.700;7.184;2022-08-27T15:00:26;8.38;;;7.68;;
7398;SDS011;3740;50.700;7.184;2022-08-27T15:02:54;8.52;;;7.90;;
7398;SDS011;3740;50.700;7.184;2022-08-27T15:05:22;9.77;;;8.77;;
7398;SDS011;3740;50.700;7.184;2022-08-27T15:07:49;8.05;;;7.25;;
7398;SDS011;3740;50.700;7.184;2022-08-27T15:10:17;7.88;;;7.18;;
7398;SDS011;3740;50.700;7.184;2022-08-27T15:12:43;9.05;;;7.65;;
7398;SDS011;3740;50.700;7.184;2022-08-27T15:15:09;6.43;;;5.93;;
7398;SDS011;3740;50.700;7.184;2022-08-27T15:17:36;7.53;;;6.22;;
7398;SDS011;3740;50.700;7.184;2022-08-27T15:20:07;7.47;;;6.78;;
7398;SDS011;3740;50.700;7.184;2022-08-27T15:22:35;7.45;;;6.60;;
7398;SDS011;3740;50.700;7.184;2022-08-27T15:25:03;7.93;;;7.13;;
7398;SDS011;3740;50.700;7.184;2022-08-27T15:27:29;7.60;;;6.82;;
7398;SDS011;3740;50.700;7.184;2022-08-27T15:29:56;7.05;;;6.35;;
7398;SDS011;3740;50.700;7.184;2022-08-27T15:32:30;6.20;;;5.70;;
7398;SDS011;3740;50.700;7.184;2022-08-27T15:35:01;6.65;;;6.05;;
7398;SDS011;3740;50.700;7.184;2022-08-27T15:37:32;6.72;;;6.03;;
7398;SDS011;3740;50.700;7.184;2022-08-27T15:39:58;6.90;;;6.28;;
7398;SDS011;3740;50.700;7.184;2022-08-27T15:42:24;8.75;;;6.22;;
7398;SDS011;3740;50.700;7.184;2022-08-27T15:44:52;6.70;;;6.10;;
7398;SDS011;3740;50.700;7.184;2022-08-27T15:47:19;6.78;;;6.10;;
7398;SDS011;3740;50.700;7.184;2022-08-27T15:49:47;7.00;;;6.40;;
7398;SDS011;3740;50.700;7.184;2022-08-27T15:52:14;6.35;;;5.85;;
7398;SDS011;3740;50.700;7.184;2022-08-27T15:54:46;6.28;;;5.68;;
7398;SDS011;3740;50.700;7.184;2022-08-27T15:57:14;7.10;;;6.43;;
7398;SDS011;3740;50.700;7.184;2022-08-27T15:59:42;9.98;;;7.28;;
7398;SDS011;3740;50.700;7.184;2022-08-27T16:02:11;7.40;;;6.45;;
7398;SDS011;3740;50.700;7.184;2022-08-27T16:04:39;8.18;;;7.05;;
7398;SDS011;3740;50.700;7.184;2022-08-27T16:07:05;9.73;;;8.65;;
7398;SDS011;3740;50.700;7.184;2022-08-27T16:09:30;8.45;;;7.72;;
7398;SDS011;3740;50.700;7.184;2022-08-27T16:11:56;8.68;;;7.85;;
7398;SDS011;3740;50.700;7.184;2022-08-27T16:14:22;8.23;;;7.43;;
7398;SDS011;3740;50.700;7.184;2022-08-27T16:16:48;8.35;;;7.63;;
7398;SDS011;3740;50.700;7.184;2022-08-27T16:19:14;8.38;;;7.53;;
7398;SDS011;3740;50.700;7.184;2022-08-27T16:21:47;8.02;;;7.28;;
7398;SDS011;3740;50.700;7.184;2022-08-27T16:24:13;8.07;;;7.28;;
7398;SDS011;3740;50.700;7.184;2022-08-27T16:26:42;8.73;;;7.82;;
7398;SDS011;3740;50.700;7.184;2022-08-27T16:29:07;9.10;;;8.30;;
7398;SDS011;3740;50.700;7.184;2022-08-27T16:31:33;9.13;;;7.78;;